Time;durP1;ratioP1;P1;durP2;ratioP2;P2;SDS_P1;SDS_P2;PMS_P1;PMS_P2;Temp;Humidity;BMP_temperature;BMP_pressure;BME280_temperature;BME280_humidity;BME280_pressure;Samples;Min_cycle;Max_cycle;Signal;HPM_P1;HPM_P2
2022/04/15 00:00:06;;;;;;;0.42;0.42;;;;;;;;;;1821159;76;26531;-44
2022/04/15 00:02:34;;;;;;;0.40;0.40;;;;;;;;;;1855567;76;26764;-43
2022/04/15 00:05:01;;;;;;;0.50;0.50;;;;;;;;;;1852707;76;26347;-45
2022/04/15 00:07:28;;;;;;;0.50;0.50;;;;;;;;;;1862140;76;26316;-43
2022/04/15 00:09:56;;;;;;;0.50;0.50;;;;;;;;;;1802563;78;26424;-43
2022/04/15 00:12:28;;;;;;;0.53;0.53;;;;;;;;;;1838221;77;26615;-45
2022/04/15 00:14:52;;;;;;;0.40;0.40;;;;;;;;;;1855980;76;26333;-44
2022/04/15 00:17:19;;;;;;;0.40;0.40;;;;;;;;;;1860678;76;26248;-43
2022/04/15 00:19:47;;;;;;;0.40;0.40;;;;;;;;;;1848891;77;26281;-44
2022/04/15 00:22:15;;;;;;;0.35;0.35;;;;;;;;;;1848693;76;26289;-47
2022/04/15 00:24:42;;;;;;;0.40;0.40;;;;;;;;;;1860239;77;26336;-47
2022/04/15 00:27:09;;;;;;;0.40;0.40;;;;;;;;;;1859564;77;26320;-45
2022/04/15 00:29:37;;;;;;;0.50;0.50;;;;;;;;;;1850170;77;26253;-42
2022/04/15 00:32:04;;;;;;;0.40;0.40;;;;;;;;;;1854525;76;26790;-42
2022/04/15 00:34:32;;;;;;;0.45;0.45;;;;;;;;;;1844355;76;26190;-42
2022/04/15 00:37:00;;;;;;;0.30;0.30;;;;;;;;;;1841207;77;26297;-41
2022/04/15 00:39:27;;;;;;;0.40;0.40;;;;;;;;;;1834548;76;26270;-43
2022/04/15 00:41:54;;;;;;;0.30;0.30;;;;;;;;;;1850525;77;26308;-45
2022/04/15 00:44:21;;;;;;;0.50;0.37;;;;;;;;;;1850231;75;26646;-42
2022/04/15 00:46:49;;;;;;;0.50;0.50;;;;;;;;;;1817036;78;26329;-44
2022/04/15 00:49:16;;;;;;;0.50;0.50;;;;;;;;;;1822580;76;26258;-41
2022/04/15 00:51:44;;;;;;;0.40;0.40;;;;;;;;;;1819780;77;26918;-47
2022/04/15 00:54:12;;;;;;;0.35;0.35;;;;;;;;;;1828770;77;26248;-41
2022/04/15 00:56:40;;;;;;;0.37;0.37;;;;;;;;;;1844021;76;26211;-44
2022/04/15 00:59:09;;;;;;;0.30;0.30;;;;;;;;;;1848976;77;26345;-42
2022/04/15 01:01:37;;;;;;;0.20;0.20;;;;;;;;;;1837518;77;26293;-43
2022/04/15 01:04:06;;;;;;;1.87;0.40;;;;;;;;;;1858299;77;26315;-42
2022/04/15 01:06:34;;;;;;;0.30;0.30;;;;;;;;;;1840972;77;26313;-41
2022/04/15 01:09:03;;;;;;;0.25;0.25;;;;;;;;;;1845712;76;26307;-43
2022/04/15 01:11:31;;;;;;;0.37;0.37;;;;;;;;;;1850990;77;26398;-47
2022/04/15 01:14:00;;;;;;;0.28;0.28;;;;;;;;;;1840204;77;25765;-44
2022/04/15 01:16:29;;;;;;;0.40;0.40;;;;;;;;;;1853933;77;26255;-43
2022/04/15 01:18:57;;;;;;;0.40;0.40;;;;;;;;;;1853580;76;26314;-45
2022/04/15 01:21:25;;;;;;;0.20;0.20;;;;;;;;;;1851278;77;26296;-44
2022/04/15 01:23:54;;;;;;;0.40;0.40;;;;;;;;;;1833069;77;26276;-44
2022/04/15 01:26:22;;;;;;;0.37;0.37;;;;;;;;;;1833082;77;26221;-43
2022/04/15 01:28:49;;;;;;;0.42;0.42;;;;;;;;;;1841611;76;26318;-43
2022/04/15 01:31:16;;;;;;;0.33;0.33;;;;;;;;;;1833700;77;26283;-41
2022/04/15 01:33:44;;;;;;;0.23;0.23;;;;;;;;;;1836384;77;26326;-43
2022/04/15 01:36:12;;;;;;;0.30;0.30;;;;;;;;;;1837388;76;26194;-43
2022/04/15 01:38:39;;;;;;;0.30;0.30;;;;;;;;;;1825218;77;26284;-43
2022/04/15 01:41:07;;;;;;;2.22;0.30;;;;;;;;;;1838534;77;26304;-41
2022/04/15 01:43:34;;;;;;;0.33;0.33;;;;;;;;;;1822998;76;26261;-45
2022/04/15 01:46:01;;;;;;;0.20;0.20;;;;;;;;;;1841428;76;26242;-45
2022/04/15 01:48:29;;;;;;;0.90;0.40;;;;;;;;;;1843670;77;27006;-43
2022/04/15 01:50:56;;;;;;;0.30;0.30;;;;;;;;;;1839435;77;26265;-41
2022/04/15 01:53:23;;;;;;;0.30;0.30;;;;;;;;;;1863245;76;26308;-42
2022/04/15 01:55:50;;;;;;;0.88;0.40;;;;;;;;;;1793982;78;26219;-40
2022/04/15 01:58:18;;;;;;;0.40;0.40;;;;;;;;;;1842357;77;26937;-41
2022/04/15 02:00:45;;;;;;;0.30;0.30;;;;;;;;;;1826488;77;26290;-42
2022/04/15 02:03:13;;;;;;;0.30;0.30;;;;;;;;;;1838364;77;26257;-42
2022/04/15 02:05:40;;;;;;;0.30;0.30;;;;;;;;;;1842902;76;26259;-44
2022/04/15 02:08:08;;;;;;;0.30;0.30;;;;;;;;;;1820830;77;26282;-41
2022/04/15 02:10:35;;;;;;;2.52;0.40;;;;;;;;;;1843778;76;26874;-40
2022/04/15 02:13:02;;;;;;;0.35;0.35;;;;;;;;;;1845518;76;26228;-43
2022/04/15 02:15:30;;;;;;;0.40;0.40;;;;;;;;;;1849719;77;26361;-44
2022/04/15 02:17:57;;;;;;;0.30;0.30;;;;;;;;;;1828841;76;26456;-43
2022/04/15 02:20:25;;;;;;;0.28;0.28;;;;;;;;;;1858225;76;26779;-45
2022/04/15 02:22:54;;;;;;;0.30;0.30;;;;;;;;;;1846970;76;26689;-41
2022/04/15 02:25:21;;;;;;;0.20;0.20;;;;;;;;;;1838785;77;26297;-40
2022/04/15 02:27:48;;;;;;;0.40;0.40;;;;;;;;;;1848234;76;26272;-47
2022/04/15 02:30:15;;;;;;;3.60;0.25;;;;;;;;;;1832165;76;26335;-43
2022/04/15 02:32:43;;;;;;;0.70;0.70;;;;;;;;;;1824647;78;26257;-43
2022/04/15 02:35:10;;;;;;;1.20;0.57;;;;;;;;;;1838797;77;26335;-42
2022/04/15 02:37:37;;;;;;;1.35;0.40;;;;;;;;;;1827876;77;26339;-42
2022/04/15 02:40:10;;;;;;;1.10;0.30;;;;;;;;;;1840014;76;26272;-42
2022/04/15 02:42:35;;;;;;;1.47;0.40;;;;;;;;;;1836402;76;26253;-46
2022/04/15 02:45:03;;;;;;;1.55;0.40;;;;;;;;;;1850919;76;26783;-41
2022/04/15 02:47:31;;;;;;;0.30;0.30;;;;;;;;;;1824827;77;26322;-42
2022/04/15 02:49:58;;;;;;;4.37;0.40;;;;;;;;;;1833415;77;26741;-45
2022/04/15 02:52:26;;;;;;;0.30;0.30;;;;;;;;;;1849974;77;26338;-46
2022/04/15 02:54:54;;;;;;;0.70;0.30;;;;;;;;;;1836706;77;26701;-45
2022/04/15 02:57:21;;;;;;;0.30;0.30;;;;;;;;;;1803521;77;26321;-42
2022/04/15 02:59:48;;;;;;;0.80;0.30;;;;;;;;;;1846887;76;26747;-44
2022/04/15 03:02:16;;;;;;;0.25;0.25;;;;;;;;;;1849176;77;26325;-42
2022/04/15 03:04:43;;;;;;;0.23;0.23;;;;;;;;;;1860278;77;26329;-43
2022/04/15 03:07:10;;;;;;;0.20;0.20;;;;;;;;;;1861880;76;26283;-46
2022/04/15 03:09:38;;;;;;;0.30;0.30;;;;;;;;;;1849399;76;26343;-41
2022/04/15 03:12:05;;;;;;;0.20;0.20;;;;;;;;;;1844402;76;26276;-42
2022/04/15 03:14:33;;;;;;;0.25;0.25;;;;;;;;;;1829647;77;26256;-41
2022/04/15 03:17:00;;;;;;;0.20;0.20;;;;;;;;;;1833382;77;26252;-47
2022/04/15 03:19:27;;;;;;;0.25;0.25;;;;;;;;;;1835220;77;26308;-43
2022/04/15 03:21:54;;;;;;;0.10;0.10;;;;;;;;;;1831686;77;26304;-49
2022/04/15 03:24:22;;;;;;;0.20;0.20;;;;;;;;;;1839035;76;26244;-45
2022/04/15 03:26:49;;;;;;;2.45;0.90;;;;;;;;;;1841600;77;26193;-43
2022/04/15 03:29:16;;;;;;;0.42;0.30;;;;;;;;;;1835555;77;26312;-48
2022/04/15 03:31:44;;;;;;;0.40;0.30;;;;;;;;;;1829147;77;26688;-47
2022/04/15 03:34:11;;;;;;;0.20;0.20;;;;;;;;;;1839226;76;26309;-51
2022/04/15 03:36:39;;;;;;;0.20;0.20;;;;;;;;;;1834361;76;26331;-43
2022/04/15 03:39:06;;;;;;;0.70;0.20;;;;;;;;;;1837209;77;26329;-49
2022/04/15 03:41:34;;;;;;;0.60;0.40;;;;;;;;;;1844139;76;26268;-53
2022/04/15 03:44:02;;;;;;;1.82;0.30;;;;;;;;;;1837166;77;26743;-44
2022/04/15 03:46:29;;;;;;;0.28;0.28;;;;;;;;;;1851416;75;26732;-41
2022/04/15 03:48:56;;;;;;;0.20;0.20;;;;;;;;;;1851149;76;26700;-40
2022/04/15 03:51:24;;;;;;;1.37;0.30;;;;;;;;;;1861505;76;26552;-42
2022/04/15 03:53:51;;;;;;;2.10;0.30;;;;;;;;;;1849704;76;26371;-43
2022/04/15 03:56:19;;;;;;;0.35;0.30;;;;;;;;;;1840056;77;26332;-40
2022/04/15 03:58:46;;;;;;;0.20;0.20;;;;;;;;;;1835520;76;26267;-44
2022/04/15 04:01:13;;;;;;;0.20;0.20;;;;;;;;;;1846963;77;26344;-44
2022/04/15 04:03:41;;;;;;;0.85;0.50;;;;;;;;;;1840161;77;26899;-47
2022/04/15 04:06:08;;;;;;;0.28;0.28;;;;;;;;;;1843478;77;26306;-47
2022/04/15 04:08:35;;;;;;;1.30;0.30;;;;;;;;;;1847593;76;26251;-45
2022/04/15 04:11:03;;;;;;;0.30;0.30;;;;;;;;;;1840147;77;26395;-44
2022/04/15 04:13:30;;;;;;;0.82;0.20;;;;;;;;;;1840458;77;26860;-47
2022/04/15 04:15:57;;;;;;;0.88;0.10;;;;;;;;;;1834479;76;26292;-44
2022/04/15 04:18:25;;;;;;;1.75;0.28;;;;;;;;;;1846644;77;26271;-44
2022/04/15 04:20:52;;;;;;;0.57;0.30;;;;;;;;;;1839541;76;26286;-46
2022/04/15 04:23:19;;;;;;;0.65;0.30;;;;;;;;;;1835350;77;26215;-47
2022/04/15 04:25:46;;;;;;;0.45;0.30;;;;;;;;;;1842067;77;26329;-46
2022/04/15 04:28:14;;;;;;;0.30;0.30;;;;;;;;;;1840355;77;26848;-50
2022/04/15 04:30:41;;;;;;;0.62;0.28;;;;;;;;;;1840190;77;26328;-50
2022/04/15 04:33:08;;;;;;;2.30;0.23;;;;;;;;;;1845062;76;26262;-45
2022/04/15 04:35:37;;;;;;;1.35;0.30;;;;;;;;;;1841398;76;26320;-51
2022/04/15 04:38:06;;;;;;;0.20;0.20;;;;;;;;;;1841408;77;26367;-47
2022/04/15 04:40:34;;;;;;;1.12;0.20;;;;;;;;;;1838886;77;26427;-46
2022/04/15 04:43:02;;;;;;;0.37;0.37;;;;;;;;;;1841077;76;27408;-44
2022/04/15 04:45:30;;;;;;;3.10;0.57;;;;;;;;;;1847808;76;26737;-44
2022/04/15 04:47:59;;;;;;;1.32;0.20;;;;;;;;;;1847575;77;26280;-53
2022/04/15 04:50:28;;;;;;;0.65;0.30;;;;;;;;;;1836814;77;26256;-47
2022/04/15 04:52:55;;;;;;;2.55;0.15;;;;;;;;;;1848857;77;26691;-49
2022/04/15 04:55:23;;;;;;;1.75;0.30;;;;;;;;;;1842602;76;26276;-42
2022/04/15 04:57:50;;;;;;;1.87;0.30;;;;;;;;;;1831325;77;26253;-47
2022/04/15 05:00:18;;;;;;;1.07;0.40;;;;;;;;;;1829696;77;26379;-48
2022/04/15 05:02:46;;;;;;;1.62;0.20;;;;;;;;;;1845947;77;26579;-45
2022/04/15 05:05:14;;;;;;;2.20;0.30;;;;;;;;;;1843515;77;26246;-46
2022/04/15 05:07:42;;;;;;;0.30;0.30;;;;;;;;;;1829277;77;26279;-44
2022/04/15 05:10:10;;;;;;;0.10;0.10;;;;;;;;;;1836375;77;26388;-49
2022/04/15 05:12:37;;;;;;;1.42;0.20;;;;;;;;;;1837859;77;26900;-46
2022/04/15 05:15:05;;;;;;;2.60;0.25;;;;;;;;;;1835218;76;26762;-45
2022/04/15 05:17:32;;;;;;;3.30;0.47;;;;;;;;;;1865409;76;26728;-42
2022/04/15 05:19:59;;;;;;;1.25;0.23;;;;;;;;;;1830037;77;26861;-47
2022/04/15 05:22:26;;;;;;;1.65;0.37;;;;;;;;;;1860577;77;26743;-44
2022/04/15 05:24:54;;;;;;;1.75;0.20;;;;;;;;;;1836313;77;26725;-51
2022/04/15 05:27:21;;;;;;;0.20;0.20;;;;;;;;;;1847513;77;26780;-48
2022/04/15 05:29:48;;;;;;;1.10;0.17;;;;;;;;;;1831068;77;26351;-51
2022/04/15 05:32:16;;;;;;;0.28;0.20;;;;;;;;;;1791641;78;26633;-48
2022/04/15 05:34:44;;;;;;;0.30;0.15;;;;;;;;;;1838235;77;26270;-48
2022/04/15 05:37:12;;;;;;;0.20;0.20;;;;;;;;;;1843843;77;26238;-42
2022/04/15 05:39:39;;;;;;;0.10;0.10;;;;;;;;;;1858155;77;26304;-47
2022/04/15 05:42:07;;;;;;;0.28;0.20;;;;;;;;;;1862025;76;26265;-41
2022/04/15 05:44:34;;;;;;;0.72;0.60;;;;;;;;;;1851029;77;26774;-45
2022/04/15 05:47:01;;;;;;;0.20;0.20;;;;;;;;;;1848256;76;26733;-43
2022/04/15 05:49:29;;;;;;;0.62;0.20;;;;;;;;;;1831868;77;26688;-44
2022/04/15 05:51:56;;;;;;;0.30;0.20;;;;;;;;;;1845215;76;26354;-42
2022/04/15 05:54:23;;;;;;;0.20;0.20;;;;;;;;;;1822712;77;26302;-44
2022/04/15 05:56:50;;;;;;;0.30;0.20;;;;;;;;;;1852398;76;26266;-48
2022/04/15 05:59:20;;;;;;;0.30;0.30;;;;;;;;;;1842252;77;26276;-48
2022/04/15 06:01:48;;;;;;;0.45;0.23;;;;;;;;;;1850294;77;26280;-46
2022/04/15 06:04:15;;;;;;;0.13;0.13;;;;;;;;;;1857925;76;26727;-44
2022/04/15 06:06:42;;;;;;;0.20;0.20;;;;;;;;;;1856922;77;26180;-50
2022/04/15 06:09:10;;;;;;;0.20;0.20;;;;;;;;;;1850499;77;26293;-43
2022/04/15 06:11:39;;;;;;;1.30;0.20;;;;;;;;;;1860009;77;26239;-44
2022/04/15 06:14:06;;;;;;;0.85;0.20;;;;;;;;;;1849624;76;26269;-45
2022/04/15 06:16:37;;;;;;;0.13;0.13;;;;;;;;;;1854949;76;26238;-42
2022/04/15 06:19:05;;;;;;;1.30;0.30;;;;;;;;;;1833336;77;27024;-45
2022/04/15 06:21:33;;;;;;;0.10;0.10;;;;;;;;;;1858086;77;26282;-43
2022/04/15 06:24:00;;;;;;;0.20;0.20;;;;;;;;;;1849996;77;25742;-47
2022/04/15 06:26:27;;;;;;;0.30;0.30;;;;;;;;;;1855580;76;26248;-50
2022/04/15 06:28:55;;;;;;;0.10;0.10;;;;;;;;;;1832445;76;26237;-47
2022/04/15 06:31:22;;;;;;;3.50;0.25;;;;;;;;;;1829457;78;26249;-47
2022/04/15 06:33:52;;;;;;;0.30;0.30;;;;;;;;;;1854103;77;26312;-43
2022/04/15 06:36:20;;;;;;;0.13;0.13;;;;;;;;;;1859679;76;26791;-43
2022/04/15 06:38:47;;;;;;;1.47;0.35;;;;;;;;;;1832854;76;26293;-45
2022/04/15 06:41:14;;;;;;;0.20;0.20;;;;;;;;;;1832610;77;26323;-42
2022/04/15 06:43:42;;;;;;;0.28;0.20;;;;;;;;;;1829944;77;26319;-46
2022/04/15 06:46:09;;;;;;;8.33;0.50;;;;;;;;;;1848455;76;26243;-44
2022/04/15 06:48:36;;;;;;;2.27;0.50;;;;;;;;;;1864050;77;25629;-41
2022/04/15 06:51:04;;;;;;;6.80;0.60;;;;;;;;;;1847176;76;26246;-50
2022/04/15 06:53:32;;;;;;;3.40;0.30;;;;;;;;;;1840059;77;26273;-42
2022/04/15 06:56:00;;;;;;;3.95;0.40;;;;;;;;;;1849274;77;26267;-45
2022/04/15 06:58:27;;;;;;;3.22;0.37;;;;;;;;;;1851395;77;26365;-43
2022/04/15 07:00:54;;;;;;;5.65;0.55;;;;;;;;;;1816525;77;26340;-48
2022/04/15 07:03:24;;;;;;;0.93;0.20;;;;;;;;;;1824959;78;26234;-47
2022/04/15 07:05:50;;;;;;;10.88;0.70;;;;;;;;;;1819798;78;26265;-43
2022/04/15 07:08:18;;;;;;;8.55;1.10;;;;;;;;;;1849911;77;26240;-42
2022/04/15 07:10:45;;;;;;;10.23;1.10;;;;;;;;;;1858047;77;26733;-45
2022/04/15 07:13:12;;;;;;;10.53;1.30;;;;;;;;;;1836563;77;26693;-42
2022/04/15 07:15:39;;;;;;;15.23;1.12;;;;;;;;;;1845177;75;26755;-46
2022/04/15 07:18:07;;;;;;;13.43;1.47;;;;;;;;;;1855692;77;26766;-43
2022/04/15 07:20:34;;;;;;;7.10;0.80;;;;;;;;;;1850663;75;26249;-43
2022/04/15 07:23:02;;;;;;;11.85;1.12;;;;;;;;;;1859362;77;26223;-46
2022/04/15 07:25:29;;;;;;;10.98;0.90;;;;;;;;;;1830905;78;26299;-42
2022/04/15 07:27:56;;;;;;;11.45;0.78;;;;;;;;;;1860089;77;26334;-43
2022/04/15 07:30:24;;;;;;;4.00;0.60;;;;;;;;;;1852745;77;26350;-45
2022/04/15 07:32:54;;;;;;;4.92;0.80;;;;;;;;;;1840515;77;26722;-48
2022/04/15 07:35:22;;;;;;;7.05;0.80;;;;;;;;;;1857182;77;26266;-41
2022/04/15 07:37:49;;;;;;;3.85;0.55;;;;;;;;;;1845023;77;26217;-47
2022/04/15 07:40:16;;;;;;;5.85;0.50;;;;;;;;;;1840052;76;26257;-42
2022/04/15 07:42:44;;;;;;;2.08;0.70;;;;;;;;;;1838254;77;26302;-49
2022/04/15 07:45:11;;;;;;;2.65;0.30;;;;;;;;;;1851316;77;26545;-45
2022/04/15 07:47:38;;;;;;;5.25;0.90;;;;;;;;;;1833916;77;32029;-44
2022/04/15 07:50:06;;;;;;;1.75;0.60;;;;;;;;;;1850562;76;26264;-46
2022/04/15 07:52:35;;;;;;;3.62;0.60;;;;;;;;;;1839245;77;26665;-43
2022/04/15 07:55:03;;;;;;;1.00;0.40;;;;;;;;;;1844939;77;26641;-45
2022/04/15 07:57:31;;;;;;;2.25;0.55;;;;;;;;;;1840390;77;26726;-43
2022/04/15 07:59:58;;;;;;;3.58;0.70;;;;;;;;;;1845392;77;26309;-44
2022/04/15 08:02:25;;;;;;;2.00;0.70;;;;;;;;;;1828828;76;26354;-54
2022/04/15 08:04:53;;;;;;;3.67;0.70;;;;;;;;;;1838377;77;26704;-45
2022/04/15 08:07:22;;;;;;;1.80;0.42;;;;;;;;;;1849873;75;26293;-48
2022/04/15 08:09:49;;;;;;;1.32;0.50;;;;;;;;;;1844619;77;26312;-46
2022/04/15 08:12:17;;;;;;;3.70;0.68;;;;;;;;;;1851689;77;26813;-45
2022/04/15 08:14:44;;;;;;;1.07;0.47;;;;;;;;;;1855136;77;26748;-51
2022/04/15 08:17:11;;;;;;;1.10;0.40;;;;;;;;;;1848582;77;26268;-46
2022/04/15 08:19:39;;;;;;;0.72;0.40;;;;;;;;;;1848119;77;26179;-46
2022/04/15 08:22:09;;;;;;;4.92;0.60;;;;;;;;;;1837222;77;26567;-47
2022/04/15 08:24:39;;;;;;;0.90;0.62;;;;;;;;;;1831535;76;26696;-46
2022/04/15 08:27:06;;;;;;;1.27;0.57;;;;;;;;;;1847144;77;26294;-48
2022/04/15 08:29:35;;;;;;;1.17;0.40;;;;;;;;;;1837474;77;26268;-46
2022/04/15 08:32:02;;;;;;;0.62;0.40;;;;;;;;;;1841670;77;26807;-48
2022/04/15 08:34:29;;;;;;;0.40;0.40;;;;;;;;;;1851740;75;26268;-44
2022/04/15 08:36:57;;;;;;;3.30;0.40;;;;;;;;;;1852402;75;26332;-46
2022/04/15 08:39:25;;;;;;;1.62;0.33;;;;;;;;;;1840113;77;26586;-48
2022/04/15 08:41:54;;;;;;;4.25;0.40;;;;;;;;;;1841454;77;26300;-41
2022/04/15 08:44:22;;;;;;;5.22;0.47;;;;;;;;;;1849840;77;26318;-47
2022/04/15 08:46:50;;;;;;;1.47;0.40;;;;;;;;;;1849802;75;26212;-45
2022/04/15 08:49:22;;;;;;;1.67;0.50;;;;;;;;;;1837665;77;26300;-45
2022/04/15 08:51:52;;;;;;;2.27;0.30;;;;;;;;;;1839475;77;26791;-47
2022/04/15 08:54:20;;;;;;;2.40;0.50;;;;;;;;;;1860424;77;26246;-44
2022/04/15 08:56:47;;;;;;;0.62;0.40;;;;;;;;;;1830348;77;26252;-47
2022/04/15 08:59:15;;;;;;;2.17;0.37;;;;;;;;;;1880372;76;26639;-46
2022/04/15 09:01:45;;;;;;;1.55;0.20;;;;;;;;;;1812141;77;26269;-44
2022/04/15 09:04:13;;;;;;;0.57;0.47;;;;;;;;;;1830858;77;26292;-47
2022/04/15 09:06:43;;;;;;;3.12;0.40;;;;;;;;;;1826206;77;26749;-48
2022/04/15 09:09:14;;;;;;;0.40;0.40;;;;;;;;;;1831787;77;26739;-43
2022/04/15 09:11:45;;;;;;;0.40;0.30;;;;;;;;;;1833449;76;26228;-46
2022/04/15 09:14:13;;;;;;;3.15;0.57;;;;;;;;;;1847331;77;26392;-44
2022/04/15 09:16:41;;;;;;;0.70;0.33;;;;;;;;;;1838625;77;26256;-43
2022/04/15 09:19:10;;;;;;;4.67;0.40;;;;;;;;;;1844757;76;26274;-49
2022/04/15 09:21:38;;;;;;;3.77;0.30;;;;;;;;;;1838571;76;26343;-48
2022/04/15 09:24:07;;;;;;;3.92;0.40;;;;;;;;;;1838135;77;25718;-46
2022/04/15 09:26:35;;;;;;;2.15;0.23;;;;;;;;;;1849695;76;26599;-48
2022/04/15 09:29:03;;;;;;;2.70;0.33;;;;;;;;;;1840887;77;26249;-45
2022/04/15 09:31:30;;;;;;;0.60;0.35;;;;;;;;;;1819703;78;26346;-41
2022/04/15 09:33:59;;;;;;;0.53;0.30;;;;;;;;;;1821621;76;26351;-43
2022/04/15 09:36:27;;;;;;;1.65;0.20;;;;;;;;;;1829348;77;26561;-48
2022/04/15 09:38:58;;;;;;;0.75;0.30;;;;;;;;;;1838875;76;26269;-47
2022/04/15 09:41:27;;;;;;;0.20;0.20;;;;;;;;;;1843602;77;26246;-47
2022/04/15 09:43:55;;;;;;;0.30;0.30;;;;;;;;;;1796155;77;28186;-43
2022/04/15 09:46:22;;;;;;;0.33;0.30;;;;;;;;;;1827230;77;26702;-43
2022/04/15 09:49:02;;;;;;;0.37;0.30;;;;;;;;;;1833969;77;26282;-51
2022/04/15 09:51:30;;;;;;;0.75;0.40;;;;;;;;;;1851914;76;26321;-51
2022/04/15 09:54:01;;;;;;;0.28;0.23;;;;;;;;;;1868673;75;26276;-49
2022/04/15 09:56:27;;;;;;;0.72;0.30;;;;;;;;;;1853590;76;26361;-55
2022/04/15 09:58:57;;;;;;;1.37;0.30;;;;;;;;;;1856265;76;26330;-51
2022/04/15 10:01:26;;;;;;;1.40;0.30;;;;;;;;;;1862244;76;26259;-46
2022/04/15 10:03:55;;;;;;;1.35;0.30;;;;;;;;;;1856632;76;26206;-51
2022/04/15 10:06:23;;;;;;;0.50;0.40;;;;;;;;;;1867522;76;26312;-49
2022/04/15 10:08:51;;;;;;;1.55;0.30;;;;;;;;;;1848941;75;26338;-44
2022/04/15 10:11:18;;;;;;;1.77;0.30;;;;;;;;;;1867222;75;26677;-47
2022/04/15 10:13:46;;;;;;;0.50;0.33;;;;;;;;;;1855448;76;26233;-49
2022/04/15 10:16:13;;;;;;;1.20;0.40;;;;;;;;;;1860378;76;26255;-46
2022/04/15 10:18:41;;;;;;;0.23;0.23;;;;;;;;;;1863445;76;26340;-49
2022/04/15 10:21:09;;;;;;;3.83;0.35;;;;;;;;;;1857791;76;26337;-50
2022/04/15 10:23:36;;;;;;;0.17;0.15;;;;;;;;;;1861549;76;26334;-47
2022/04/15 10:26:04;;;;;;;0.93;0.23;;;;;;;;;;1856947;76;26241;-46
2022/04/15 10:28:38;;;;;;;2.95;0.50;;;;;;;;;;1862776;75;26269;-48
2022/04/15 10:31:16;;;;;;;2.10;0.35;;;;;;;;;;1862909;76;26329;-46
2022/04/15 10:33:43;;;;;;;2.85;0.30;;;;;;;;;;1868058;76;26294;-44
2022/04/15 10:36:13;;;;;;;0.30;0.30;;;;;;;;;;1845910;77;26264;-44
2022/04/15 10:38:58;;;;;;;0.72;0.40;;;;;;;;;;1867573;76;26341;-48
2022/04/15 10:41:25;;;;;;;1.47;0.20;;;;;;;;;;1886358;75;26246;-47
2022/04/15 10:43:57;;;;;;;1.45;0.25;;;;;;;;;;1867696;75;26547;-50
2022/04/15 10:46:31;;;;;;;0.53;0.17;;;;;;;;;;1871091;75;26314;-45
2022/04/15 10:49:02;;;;;;;0.40;0.37;;;;;;;;;;1857953;76;26346;-49
2022/04/15 10:51:34;;;;;;;0.30;0.20;;;;;;;;;;1852071;76;26303;-45
2022/04/15 10:54:20;;;;;;;0.15;0.15;;;;;;;;;;1870471;75;26355;-49
2022/04/15 10:57:03;;;;;;;0.20;0.20;;;;;;;;;;1860174;76;26814;-47
2022/04/15 11:02:20;;;;;;;0.15;0.15;;;;;;;;;;1886188;75;26251;-46
2022/04/15 11:04:49;;;;;;;0.25;0.25;;;;;;;;;;1879512;75;27451;-49
2022/04/15 11:07:18;;;;;;;0.10;0.10;;;;;;;;;;1848628;76;26562;-47
2022/04/15 11:09:47;;;;;;;0.80;0.10;;;;;;;;;;1854070;76;26273;-50
2022/04/15 11:12:16;;;;;;;0.68;0.03;;;;;;;;;;1863267;76;26253;-49
2022/04/15 11:14:44;;;;;;;0.37;0.30;;;;;;;;;;1858166;76;26264;-45
2022/04/15 11:17:14;;;;;;;0.10;0.10;;;;;;;;;;1883910;75;26299;-45
2022/04/15 11:19:41;;;;;;;0.25;0.25;;;;;;;;;;1877590;75;26725;-48
2022/04/15 11:22:08;;;;;;;2.83;0.20;;;;;;;;;;1879379;76;26225;-48
2022/04/15 11:24:38;;;;;;;1.00;0.20;;;;;;;;;;1861897;76;26275;-45
2022/04/15 11:27:05;;;;;;;0.20;0.20;;;;;;;;;;1869521;75;26313;-53
2022/04/15 11:29:35;;;;;;;0.88;0.30;;;;;;;;;;1856967;76;26859;-48
2022/04/15 11:32:06;;;;;;;0.20;0.20;;;;;;;;;;1865611;76;26254;-47
2022/04/15 11:34:33;;;;;;;0.30;0.20;;;;;;;;;;1870618;76;26190;-44
2022/04/15 11:37:02;;;;;;;0.20;0.10;;;;;;;;;;1879181;75;26291;-45
2022/04/15 11:39:29;;;;;;;0.37;0.10;;;;;;;;;;1856180;76;26301;-47
2022/04/15 11:41:57;;;;;;;0.30;0.30;;;;;;;;;;1852416;76;26244;-46
2022/04/15 11:44:26;;;;;;;0.23;0.20;;;;;;;;;;1869531;76;26549;-54
2022/04/15 11:46:54;;;;;;;1.45;0.30;;;;;;;;;;1878410;76;26187;-48
2022/04/15 11:49:27;;;;;;;1.17;0.10;;;;;;;;;;1873166;76;26301;-50
2022/04/15 11:51:56;;;;;;;0.20;0.10;;;;;;;;;;1837323;75;26250;-45
2022/04/15 11:54:39;;;;;;;0.20;0.20;;;;;;;;;;1862006;77;26703;-50
2022/04/15 11:57:08;;;;;;;0.30;0.30;;;;;;;;;;1836578;76;26320;-50
2022/04/15 11:59:39;;;;;;;0.10;0.10;;;;;;;;;;1848572;77;26708;-49
2022/04/15 12:02:06;;;;;;;0.40;0.40;;;;;;;;;;1832637;77;26319;-45
2022/04/15 12:04:35;;;;;;;0.20;0.20;;;;;;;;;;1822797;77;26269;-46
2022/04/15 12:07:03;;;;;;;0.75;0.35;;;;;;;;;;1835868;77;26781;-46
2022/04/15 12:09:30;;;;;;;0.45;0.30;;;;;;;;;;1811594;77;26467;-46
2022/04/15 12:11:58;;;;;;;0.15;0.15;;;;;;;;;;1833212;77;26260;-46
2022/04/15 12:14:26;;;;;;;0.28;0.28;;;;;;;;;;1831166;76;26348;-46
2022/04/15 12:16:55;;;;;;;0.37;0.28;;;;;;;;;;1833564;77;26754;-49
2022/04/15 12:19:22;;;;;;;0.30;0.30;;;;;;;;;;1836460;77;26260;-45
2022/04/15 12:21:49;;;;;;;0.40;0.40;;;;;;;;;;1835510;76;26196;-45
2022/04/15 12:24:23;;;;;;;1.90;0.20;;;;;;;;;;1830114;76;26290;-44
2022/04/15 12:26:52;;;;;;;0.98;0.30;;;;;;;;;;1833665;76;26754;-46
2022/04/15 12:32:17;;;;;;;0.65;0.25;;;;;;;;;;1837265;77;26257;-45
2022/04/15 12:34:46;;;;;;;0.25;0.25;;;;;;;;;;1848587;77;26350;-49
2022/04/15 12:37:33;;;;;;;0.23;0.23;;;;;;;;;;1838109;76;26331;-46
2022/04/15 12:40:01;;;;;;;0.40;0.40;;;;;;;;;;1844767;77;26332;-45
2022/04/15 12:42:32;;;;;;;0.25;0.25;;;;;;;;;;1834207;77;26253;-47
2022/04/15 12:45:01;;;;;;;0.30;0.30;;;;;;;;;;1848305;75;26807;-46
2022/04/15 12:47:28;;;;;;;0.30;0.30;;;;;;;;;;1847370;75;26545;-44
2022/04/15 12:49:57;;;;;;;1.62;0.40;;;;;;;;;;1852042;76;26277;-47
2022/04/15 12:52:26;;;;;;;0.72;0.40;;;;;;;;;;1869972;76;26256;-45
2022/04/15 12:55:04;;;;;;;0.40;0.40;;;;;;;;;;1875782;76;26304;-45
2022/04/15 12:57:36;;;;;;;0.60;0.55;;;;;;;;;;1865172;76;26271;-45
2022/04/15 13:00:05;;;;;;;0.72;0.65;;;;;;;;;;1866427;76;26739;-47
2022/04/15 13:02:33;;;;;;;0.60;0.60;;;;;;;;;;1866657;76;26283;-46
2022/04/15 13:05:00;;;;;;;0.78;0.55;;;;;;;;;;1861782;76;26567;-45
2022/04/15 13:07:28;;;;;;;0.60;0.60;;;;;;;;;;1863125;75;26319;-45
2022/04/15 13:09:55;;;;;;;1.10;0.80;;;;;;;;;;1856250;76;26342;-48
2022/04/15 13:12:23;;;;;;;0.60;0.60;;;;;;;;;;1855299;76;26249;-47
2022/04/15 13:14:52;;;;;;;2.95;0.75;;;;;;;;;;1858048;76;26262;-47
2022/04/15 13:17:20;;;;;;;2.02;0.85;;;;;;;;;;1831283;76;26339;-49
2022/04/15 13:19:47;;;;;;;1.55;0.95;;;;;;;;;;1863030;76;26771;-48
2022/04/15 13:22:16;;;;;;;3.02;0.85;;;;;;;;;;1852230;75;26370;-47
2022/04/15 13:24:43;;;;;;;1.77;0.90;;;;;;;;;;1857103;76;26362;-47
2022/04/15 13:27:11;;;;;;;1.50;0.78;;;;;;;;;;1860890;76;26268;-49
2022/04/15 13:29:39;;;;;;;1.17;1.00;;;;;;;;;;1859663;76;26246;-45
2022/04/15 13:32:06;;;;;;;1.00;0.95;;;;;;;;;;1869878;76;26281;-47
2022/04/15 13:34:34;;;;;;;2.58;1.00;;;;;;;;;;1862044;75;26252;-46
2022/04/15 13:37:05;;;;;;;0.85;0.85;;;;;;;;;;1863777;76;27465;-49
2022/04/15 13:39:33;;;;;;;2.22;0.80;;;;;;;;;;1852081;76;26224;-46
2022/04/15 13:42:01;;;;;;;1.50;0.68;;;;;;;;;;1851023;76;26260;-49
2022/04/15 13:44:28;;;;;;;0.82;0.70;;;;;;;;;;1869497;76;26339;-47
2022/04/15 13:46:57;;;;;;;2.10;0.90;;;;;;;;;;1852088;75;26338;-45
2022/04/15 13:49:24;;;;;;;2.30;0.80;;;;;;;;;;1853649;76;26353;-50
2022/04/15 13:51:51;;;;;;;1.17;0.70;;;;;;;;;;1833217;77;26255;-50
2022/04/15 13:57:05;;;;;;;2.67;0.75;;;;;;;;;;1850401;76;26390;-49
2022/04/15 13:59:32;;;;;;;0.72;0.72;;;;;;;;;;1831980;77;26298;-45
2022/04/15 14:01:59;;;;;;;0.68;0.60;;;;;;;;;;1830568;77;26352;-47
2022/04/15 14:04:27;;;;;;;3.50;0.90;;;;;;;;;;1831592;77;26360;-48
2022/04/15 14:06:54;;;;;;;1.95;0.72;;;;;;;;;;1831827;77;26298;-51
2022/04/15 14:09:23;;;;;;;2.05;0.80;;;;;;;;;;1839989;76;26397;-49
2022/04/15 14:11:51;;;;;;;0.70;0.70;;;;;;;;;;1835477;76;26340;-50
2022/04/15 14:14:18;;;;;;;0.95;0.53;;;;;;;;;;1827552;77;26834;-48
2022/04/15 14:16:47;;;;;;;0.70;0.70;;;;;;;;;;1826825;77;26321;-46
2022/04/15 14:19:15;;;;;;;1.87;0.78;;;;;;;;;;1819836;76;26255;-46
2022/04/15 14:21:42;;;;;;;0.95;0.70;;;;;;;;;;1827916;77;26733;-47
2022/04/15 14:24:09;;;;;;;2.22;0.70;;;;;;;;;;1819209;77;26326;-49
2022/04/15 14:26:37;;;;;;;0.50;0.50;;;;;;;;;;1831656;77;26272;-44
2022/04/15 14:29:04;;;;;;;1.77;0.60;;;;;;;;;;1830836;77;26329;-49
2022/04/15 14:31:31;;;;;;;0.50;0.50;;;;;;;;;;1832207;76;26365;-47
2022/04/15 14:33:59;;;;;;;1.60;0.60;;;;;;;;;;1831596;77;26248;-48
2022/04/15 14:36:27;;;;;;;0.98;0.80;;;;;;;;;;1823201;76;26258;-44
2022/04/15 14:38:55;;;;;;;1.35;0.60;;;;;;;;;;1830923;77;26208;-47
2022/04/15 14:41:22;;;;;;;0.55;0.50;;;;;;;;;;1837620;77;26634;-46
2022/04/15 14:43:50;;;;;;;0.65;0.60;;;;;;;;;;1831795;76;26383;-46
2022/04/15 14:46:17;;;;;;;0.75;0.60;;;;;;;;;;1834341;77;26291;-47
2022/04/15 14:48:47;;;;;;;0.55;0.50;;;;;;;;;;1830021;77;26341;-47
2022/04/15 14:51:14;;;;;;;2.27;0.50;;;;;;;;;;1838495;77;26739;-44
2022/04/15 14:53:41;;;;;;;1.50;0.55;;;;;;;;;;1813303;78;26456;-45
2022/04/15 14:56:09;;;;;;;1.65;0.70;;;;;;;;;;1846462;75;26301;-46